Time;durP1;ratioP1;P1;durP2;ratioP2;P2;SDS_P1;SDS_P2;PMS_P1;PMS_P2;Temp;Humidity;BMP_temperature;BMP_pressure;BME280_temperature;BME280_humidity;BME280_pressure;Samples;Min_cycle;Max_cycle;Signal;HPM_P1;HPM_P2
2024/03/30 00:01:50;;;;;;;;;;;;;;;;;;5057211;28;19932;-76
2024/03/30 00:04:17;;;;;;;;;;;;;;;;;;5049578;28;19928;-76
2024/03/30 00:06:43;;;;;;;;;;;;;;;;;;5048955;28;20459;-76
2024/03/30 00:09:10;;;;;;;;;;;;;;;;;;5049800;28;20380;-76
2024/03/30 00:11:36;;;;;;;;;;;;;;;;;;5049771;28;19976;-76
2024/03/30 00:14:03;;;;;;;;;;;;;;;;;;5049409;28;19933;-77
2024/03/30 00:16:29;;;;;;;;;;;;;;;;;;5049548;28;20457;-76
2024/03/30 00:18:57;;;;;;;;;;;;;;;;;;5051533;28;19929;-76
2024/03/30 00:21:23;;;;;;;;;;;;;;;;;;5049000;28;19928;-76
2024/03/30 00:23:50;;;;;;;;;;;;;;;;;;5049320;28;20224;-76
2024/03/30 00:26:16;;;;;;;;;;;;;;;;;;5052702;28;19975;-76
2024/03/30 00:28:43;;;;;;;;;;;;;;;;;;5053399;28;19975;-77
2024/03/30 00:31:09;;;;;;;;;;;;;;;;;;5053873;28;19933;-78
2024/03/30 00:33:36;;;;;;;;;;;;;;;;;;5053539;28;19929;-77
2024/03/30 00:36:02;;;;;;;;;;;;;;;;;;5056012;28;20307;-78
2024/03/30 00:38:29;;;;;;;;;;;;;;;;;;5053991;28;19928;-77
2024/03/30 00:40:55;;;;;;;;;;;;;;;;;;5054143;28;19951;-77
2024/03/30 00:43:22;;;;;;;;;;;;;;;;;;5065219;28;20296;-77
2024/03/30 00:45:48;;;;;;;;;;;;;;;;;;5053124;28;20395;-77
2024/03/30 00:48:15;;;;;;;;;;;;;;;;;;5053163;28;19932;-77
2024/03/30 00:50:41;;;;;;;;;;;;;;;;;;5053098;28;20327;-78
2024/03/30 00:53:08;;;;;;;;;;;;;;;;;;5053623;28;19936;-77
2024/03/30 00:55:34;;;;;;;;;;;;;;;;;;5052561;28;20338;-77
2024/03/30 00:58:01;;;;;;;;;;;;;;;;;;5052684;28;20699;-77
2024/03/30 01:00:28;;;;;;;;;;;;;;;;;;5052326;28;19960;-77
2024/03/30 01:02:55;;;;;;;;;;;;;;;;;;5052017;28;19941;-77
2024/03/30 01:05:21;;;;;;;;;;;;;;;;;;5053663;28;19928;-77
2024/03/30 01:07:48;;;;;;;;;;;;;;;;;;5052031;28;20413;-77
2024/03/30 01:10:14;;;;;;;;;;;;;;;;;;5053409;28;19928;-77
2024/03/30 01:12:41;;;;;;;;;;;;;;;;;;5053042;28;19928;-76
2024/03/30 01:15:08;;;;;;;;;;;;;;;;;;5052018;28;19932;-76
2024/03/30 01:17:35;;;;;;;;;;;;;;;;;;5051960;28;19935;-76
2024/03/30 01:20:01;;;;;;;;;;;;;;;;;;5052120;28;20391;-77
2024/03/30 01:22:28;;;;;;;;;;;;;;;;;;5056443;28;19932;-77
2024/03/30 01:24:54;;;;;;;;;;;;;;;;;;5052000;28;19990;-79
2024/03/30 01:27:21;;;;;;;;;;;;;;;;;;5052524;28;19928;-78
2024/03/30 01:29:47;;;;;;;;;;;;;;;;;;5051942;28;19929;-78
2024/03/30 01:32:14;;;;;;;;;;;;;;;;;;5052226;28;19933;-79
2024/03/30 01:34:40;;;;;;;;;;;;;;;;;;5052451;28;19929;-78
2024/03/30 01:37:07;;;;;;;;;;;;;;;;;;5051403;28;19935;-77
2024/03/30 01:39:33;;;;;;;;;;;;;;;;;;5051899;28;19951;-77
2024/03/30 01:42:01;;;;;;;;;;;;;;;;;;5052076;28;19928;-77
2024/03/30 01:44:27;;;;;;;;;;;;;;;;;;5052330;28;20388;-76
2024/03/30 01:46:54;;;;;;;;;;;;;;;;;;5051950;28;20016;-76
2024/03/30 01:49:20;;;;;;;;;;;;;;;;;;5055095;28;19928;-76
2024/03/30 01:51:47;;;;;;;;;;;;;;;;;;5061959;28;19929;-77
2024/03/30 01:54:13;;;;;;;;;;;;;;;;;;5052123;28;20418;-76
2024/03/30 01:56:40;;;;;;;;;;;;;;;;;;5052210;28;19970;-77
2024/03/30 01:59:06;;;;;;;;;;;;;;;;;;5053086;28;20397;-76
2024/03/30 02:01:33;;;;;;;;;;;;;;;;;;5058086;28;19967;-76
2024/03/30 02:03:59;;;;;;;;;;;;;;;;;;5055665;28;19932;-77
2024/03/30 02:06:26;;;;;;;;;;;;;;;;;;5052878;28;19936;-78
2024/03/30 02:08:52;;;;;;;;;;;;;;;;;;5051698;28;19936;-77
2024/03/30 02:11:19;;;;;;;;;;;;;;;;;;5052340;28;19928;-77
2024/03/30 02:13:46;;;;;;;;;;;;;;;;;;5051382;28;19940;-77
2024/03/30 02:16:13;;;;;;;;;;;;;;;;;;5051311;28;19936;-77
2024/03/30 02:18:39;;;;;;;;;;;;;;;;;;5051394;28;20011;-76
2024/03/30 02:21:06;;;;;;;;;;;;;;;;;;5051214;28;19928;-77
2024/03/30 02:23:32;;;;;;;;;;;;;;;;;;5050427;28;19928;-77
2024/03/30 02:25:59;;;;;;;;;;;;;;;;;;5050794;28;20019;-77
2024/03/30 02:28:27;;;;;;;;;;;;;;;;;;5050972;28;20648;-77
2024/03/30 02:30:54;;;;;;;;;;;;;;;;;;5050627;28;19983;-77
2024/03/30 02:33:20;;;;;;;;;;;;;;;;;;5051665;28;19929;-77
2024/03/30 02:35:47;;;;;;;;;;;;;;;;;;5051551;28;19928;-76
2024/03/30 02:38:13;;;;;;;;;;;;;;;;;;5051021;28;20308;-77
2024/03/30 02:40:40;;;;;;;;;;;;;;;;;;5064436;28;19939;-77
2024/03/30 02:43:07;;;;;;;;;;;;;;;;;;5051813;28;19932;-78
2024/03/30 02:45:34;;;;;;;;;;;;;;;;;;5050352;28;20362;-77
2024/03/30 02:48:00;;;;;;;;;;;;;;;;;;5049569;28;19971;-77
2024/03/30 02:50:27;;;;;;;;;;;;;;;;;;5050922;28;19986;-77
2024/03/30 02:52:53;;;;;;;;;;;;;;;;;;5050104;28;19932;-77
2024/03/30 02:55:20;;;;;;;;;;;;;;;;;;5050340;28;20312;-77
2024/03/30 02:57:46;;;;;;;;;;;;;;;;;;5049806;28;19956;-77
2024/03/30 03:00:13;;;;;;;;;;;;;;;;;;5051187;28;19936;-77
2024/03/30 03:02:39;;;;;;;;;;;;;;;;;;5050395;28;20327;-77
2024/03/30 03:05:06;;;;;;;;;;;;;;;;;;5052277;28;19928;-77
2024/03/30 03:07:32;;;;;;;;;;;;;;;;;;5049806;28;19936;-77
2024/03/30 03:09:59;;;;;;;;;;;;;;;;;;5051147;28;19954;-77
2024/03/30 03:12:26;;;;;;;;;;;;;;;;;;5050446;28;20441;-77
2024/03/30 03:14:53;;;;;;;;;;;;;;;;;;5050777;28;20020;-76
2024/03/30 03:17:19;;;;;;;;;;;;;;;;;;5049924;28;19932;-76
2024/03/30 03:19:47;;;;;;;;;;;;;;;;;;5050182;28;19932;-77
2024/03/30 03:22:13;;;;;;;;;;;;;;;;;;5049409;28;19951;-78
2024/03/30 03:24:40;;;;;;;;;;;;;;;;;;5049687;28;19982;-77
2024/03/30 03:27:06;;;;;;;;;;;;;;;;;;5050881;28;19983;-77
2024/03/30 03:29:33;;;;;;;;;;;;;;;;;;5050060;28;20391;-76
2024/03/30 03:31:59;;;;;;;;;;;;;;;;;;5050093;28;19982;-77
2024/03/30 03:34:26;;;;;;;;;;;;;;;;;;5049896;28;19982;-77
2024/03/30 03:36:52;;;;;;;;;;;;;;;;;;5049899;28;19929;-79
2024/03/30 03:39:20;;;;;;;;;;;;;;;;;;5049708;28;19940;-77
2024/03/30 03:41:46;;;;;;;;;;;;;;;;;;5048868;28;20395;-77
2024/03/30 03:44:13;;;;;;;;;;;;;;;;;;5049919;28;19929;-77
2024/03/30 03:46:39;;;;;;;;;;;;;;;;;;5049899;28;19929;-77
2024/03/30 03:49:06;;;;;;;;;;;;;;;;;;5050131;28;20035;-76
2024/03/30 03:51:32;;;;;;;;;;;;;;;;;;5050145;28;20025;-77
2024/03/30 03:53:59;;;;;;;;;;;;;;;;;;5049243;28;19974;-77
2024/03/30 03:56:25;;;;;;;;;;;;;;;;;;5048726;28;20010;-78
2024/03/30 03:58:52;;;;;;;;;;;;;;;;;;5049639;28;20353;-78
2024/03/30 04:01:19;;;;;;;;;;;;;;;;;;5059949;28;20445;-77
2024/03/30 04:03:46;;;;;;;;;;;;;;;;;;5053693;28;19928;-77
2024/03/30 04:06:12;;;;;;;;;;;;;;;;;;5054079;28;20010;-77
2024/03/30 04:08:39;;;;;;;;;;;;;;;;;;5054605;28;19929;-77
2024/03/30 04:11:05;;;;;;;;;;;;;;;;;;5055386;28;19983;-76
2024/03/30 04:13:33;;;;;;;;;;;;;;;;;;5056599;28;19932;-76
2024/03/30 04:15:59;;;;;;;;;;;;;;;;;;5060736;28;19987;-76
2024/03/30 04:18:26;;;;;;;;;;;;;;;;;;5053656;28;19929;-75
2024/03/30 04:20:52;;;;;;;;;;;;;;;;;;5054385;28;19975;-76
2024/03/30 04:23:20;;;;;;;;;;;;;;;;;;5054246;28;19940;-77
2024/03/30 04:25:46;;;;;;;;;;;;;;;;;;5055707;28;19982;-77
2024/03/30 04:28:13;;;;;;;;;;;;;;;;;;5056955;28;19948;-77
2024/03/30 04:30:40;;;;;;;;;;;;;;;;;;5054836;28;19933;-77
2024/03/30 04:33:07;;;;;;;;;;;;;;;;;;5055647;28;19955;-76
2024/03/30 04:35:33;;;;;;;;;;;;;;;;;;5067602;28;19935;-76
2024/03/30 04:38:00;;;;;;;;;;;;;;;;;;5055869;28;19960;-76
2024/03/30 04:40:27;;;;;;;;;;;;;;;;;;5047510;28;20015;-77
2024/03/30 04:42:54;;;;;;;;;;;;;;;;;;5053640;28;19932;-77
2024/03/30 04:45:20;;;;;;;;;;;;;;;;;;5053701;28;19944;-77
2024/03/30 04:47:47;;;;;;;;;;;;;;;;;;5053020;28;19929;-77
2024/03/30 04:50:13;;;;;;;;;;;;;;;;;;5052552;28;20708;-76
2024/03/30 04:52:40;;;;;;;;;;;;;;;;;;5053339;28;20410;-77
2024/03/30 04:55:06;;;;;;;;;;;;;;;;;;5053202;28;19929;-77
2024/03/30 04:57:33;;;;;;;;;;;;;;;;;;5053185;28;19929;-78
2024/03/30 04:59:59;;;;;;;;;;;;;;;;;;5052850;28;19936;-78
2024/03/30 05:02:26;;;;;;;;;;;;;;;;;;5052612;28;19934;-77
2024/03/30 05:04:52;;;;;;;;;;;;;;;;;;5052382;28;19928;-77
2024/03/30 05:07:20;;;;;;;;;;;;;;;;;;5053093;28;19928;-78
2024/03/30 05:09:46;;;;;;;;;;;;;;;;;;5051699;28;20266;-78
2024/03/30 05:12:13;;;;;;;;;;;;;;;;;;5051706;28;19929;-77
2024/03/30 05:14:39;;;;;;;;;;;;;;;;;;5052551;28;20415;-78
2024/03/30 05:17:06;;;;;;;;;;;;;;;;;;5052068;28;19976;-77
2024/03/30 05:22:17;;;;;;;;;;;;;;;;;;5043255;28;20391;-77
2024/03/30 05:24:43;;;;;;;;;;;;;;;;;;5052386;28;19964;-77
2024/03/30 05:27:10;;;;;;;;;;;;;;;;;;5051842;28;20010;-77
2024/03/30 05:29:38;;;;;;;;;;;;;;;;;;5052890;28;19933;-77
2024/03/30 05:32:04;;;;;;;;;;;;;;;;;;5044514;28;19936;-77
2024/03/30 05:34:31;;;;;;;;;;;;;;;;;;5051164;28;20387;-76
2024/03/30 05:36:57;;;;;;;;;;;;;;;;;;5052165;28;20380;-77
2024/03/30 05:39:25;;;;;;;;;;;;;;;;;;5051840;28;19929;-76
2024/03/30 05:41:51;;;;;;;;;;;;;;;;;;5053574;28;19990;-76
2024/03/30 05:44:18;;;;;;;;;;;;;;;;;;5051767;28;20035;-77
2024/03/30 05:46:44;;;;;;;;;;;;;;;;;;5053559;28;19933;-77
2024/03/30 05:49:11;;;;;;;;;;;;;;;;;;5051476;28;19994;-77
2024/03/30 05:51:37;;;;;;;;;;;;;;;;;;5051635;28;19940;-77
2024/03/30 05:54:04;;;;;;;;;;;;;;;;;;5051225;28;20002;-76
2024/03/30 05:56:30;;;;;;;;;;;;;;;;;;5042633;28;19933;-77
2024/03/30 05:58:57;;;;;;;;;;;;;;;;;;5049928;28;19928;-76
2024/03/30 06:01:23;;;;;;;;;;;;;;;;;;5051760;28;20026;-76
2024/03/30 06:03:50;;;;;;;;;;;;;;;;;;5051234;28;19933;-76
2024/03/30 06:06:16;;;;;;;;;;;;;;;;;;5051470;28;20383;-77
2024/03/30 06:08:43;;;;;;;;;;;;;;;;;;5050123;28;19936;-78
2024/03/30 06:11:09;;;;;;;;;;;;;;;;;;5051192;28;19937;-78
2024/03/30 06:13:36;;;;;;;;;;;;;;;;;;5053730;28;20634;-77
2024/03/30 06:16:02;;;;;;;;;;;;;;;;;;5062564;28;19933;-78
2024/03/30 06:18:29;;;;;;;;;;;;;;;;;;5051898;28;20303;-78
2024/03/30 06:20:55;;;;;;;;;;;;;;;;;;5050974;28;19984;-77
2024/03/30 06:23:22;;;;;;;;;;;;;;;;;;5058072;28;19929;-78
2024/03/30 06:25:48;;;;;;;;;;;;;;;;;;5063092;28;19964;-77
2024/03/30 06:28:16;;;;;;;;;;;;;;;;;;5051478;28;19936;-77
2024/03/30 06:30:42;;;;;;;;;;;;;;;;;;5052235;28;19933;-82
2024/03/30 06:33:10;;;;;;;;;;;;;;;;;;5044269;28;20288;-79
2024/03/30 06:35:37;;;;;;;;;;;;;;;;;;5053251;28;19928;-82
2024/03/30 06:38:05;;;;;;;;;;;;;;;;;;5050293;28;19929;-81
2024/03/30 06:46:07;;;;;;;;;;;;;;;;;;5029183;28;19929;-74
2024/03/30 06:48:34;;;;;;;;;;;;;;;;;;5041584;28;19929;-74
2024/03/30 06:51:01;;;;;;;;;;;;;;;;;;5050399;28;19933;-75
2024/03/30 06:53:27;;;;;;;;;;;;;;;;;;5051065;28;19929;-75
2024/03/30 06:55:54;;;;;;;;;;;;;;;;;;5048747;28;20395;-75
2024/03/30 06:58:20;;;;;;;;;;;;;;;;;;5046868;28;19933;-76
2024/03/30 07:00:47;;;;;;;;;;;;;;;;;;5048477;28;19928;-75
2024/03/30 07:03:13;;;;;;;;;;;;;;;;;;5048904;28;19929;-75
2024/03/30 07:05:40;;;;;;;;;;;;;;;;;;5048864;28;20362;-75
2024/03/30 07:08:06;;;;;;;;;;;;;;;;;;5049430;28;19964;-74
2024/03/30 07:10:33;;;;;;;;;;;;;;;;;;5031592;28;19983;-75
2024/03/30 07:12:59;;;;;;;;;;;;;;;;;;5041612;28;19976;-74
2024/03/30 07:15:26;;;;;;;;;;;;;;;;;;5046564;28;19928;-75
2024/03/30 07:17:53;;;;;;;;;;;;;;;;;;5040284;28;19929;-75
2024/03/30 07:20:20;;;;;;;;;;;;;;;;;;5045584;28;19929;-75
2024/03/30 07:22:46;;;;;;;;;;;;;;;;;;5048172;28;19929;-76
2024/03/30 07:25:13;;;;;;;;;;;;;;;;;;5043998;28;19929;-75
2024/03/30 07:27:39;;;;;;;;;;;;;;;;;;5041904;28;19976;-76
2024/03/30 07:30:06;;;;;;;;;;;;;;;;;;5043243;28;19936;-75
2024/03/30 07:32:33;;;;;;;;;;;;;;;;;;5046302;28;19928;-75
2024/03/30 07:35:00;;;;;;;;;;;;;;;;;;5048363;28;19928;-75
2024/03/30 07:37:26;;;;;;;;;;;;;;;;;;5044086;28;20014;-76
2024/03/30 07:39:53;;;;;;;;;;;;;;;;;;5040194;28;20346;-76
2024/03/30 07:42:19;;;;;;;;;;;;;;;;;;5054857;28;20213;-76
2024/03/30 07:44:46;;;;;;;;;;;;;;;;;;5046598;28;19929;-75
2024/03/30 07:47:12;;;;;;;;;;;;;;;;;;5045940;28;19987;-72
2024/03/30 07:49:39;;;;;;;;;;;;;;;;;;5048023;28;19983;-71
2024/03/30 07:52:05;;;;;;;;;;;;;;;;;;5043862;28;19982;-71
2024/03/30 07:54:32;;;;;;;;;;;;;;;;;;5046382;28;19976;-72
2024/03/30 07:56:58;;;;;;;;;;;;;;;;;;5050015;28;19964;-72
2024/03/30 07:59:25;;;;;;;;;;;;;;;;;;5051730;28;20281;-69
2024/03/30 08:01:52;;;;;;;;;;;;;;;;;;5048287;28;20399;-71
2024/03/30 08:04:19;;;;;;;;;;;;;;;;;;5049157;28;19980;-71
2024/03/30 08:06:45;;;;;;;;;;;;;;;;;;5043787;28;20396;-70
2024/03/30 08:09:12;;;;;;;;;;;;;;;;;;5048558;28;19974;-72
2024/03/30 08:11:38;;;;;;;;;;;;;;;;;;5040706;28;19968;-73
2024/03/30 08:14:05;;;;;;;;;;;;;;;;;;5045490;28;19928;-75
2024/03/30 08:16:31;;;;;;;;;;;;;;;;;;5047434;28;19937;-72
2024/03/30 08:18:58;;;;;;;;;;;;;;;;;;5048113;28;19935;-71
2024/03/30 08:21:24;;;;;;;;;;;;;;;;;;5047689;28;19964;-72
2024/03/30 08:23:51;;;;;;;;;;;;;;;;;;5047943;28;19986;-72
2024/03/30 08:26:17;;;;;;;;;;;;;;;;;;5041609;28;19967;-73
2024/03/30 08:28:44;;;;;;;;;;;;;;;;;;5049885;28;19932;-73
2024/03/30 08:31:11;;;;;;;;;;;;;;;;;;5048565;28;19929;-74
2024/03/30 08:33:38;;;;;;;;;;;;;;;;;;5053026;28;19928;-76
2024/03/30 08:36:04;;;;;;;;;;;;;;;;;;5040342;28;20034;-75
2024/03/30 08:38:31;;;;;;;;;;;;;;;;;;5035710;28;20461;-74
2024/03/30 08:40:57;;;;;;;;;;;;;;;;;;5043037;28;19971;-74
2024/03/30 08:43:25;;;;;;;;;;;;;;;;;;5043746;28;19936;-75
2024/03/30 08:45:51;;;;;;;;;;;;;;;;;;5041263;28;19933;-74
2024/03/30 08:48:18;;;;;;;;;;;;;;;;;;5043437;28;19976;-74
2024/03/30 08:50:44;;;;;;;;;;;;;;;;;;5044889;28;19928;-73
2024/03/30 08:53:11;;;;;;;;;;;;;;;;;;5043324;28;19933;-74
2024/03/30 08:55:37;;;;;;;;;;;;;;;;;;5045229;28;19932;-74
2024/03/30 08:58:04;;;;;;;;;;;;;;;;;;5040933;28;19929;-74
2024/03/30 09:00:30;;;;;;;;;;;;;;;;;;5047067;28;19998;-74
2024/03/30 09:02:57;;;;;;;;;;;;;;;;;;5043123;28;20006;-73
2024/03/30 09:05:23;;;;;;;;;;;;;;;;;;5046470;28;19983;-74
2024/03/30 09:07:50;;;;;;;;;;;;;;;;;;5042222;28;19975;-75
2024/03/30 09:10:16;;;;;;;;;;;;;;;;;;5042145;28;19929;-75
2024/03/30 09:12:43;;;;;;;;;;;;;;;;;;5044330;28;19929;-74
2024/03/30 09:15:09;;;;;;;;;;;;;;;;;;5049463;28;19929;-75
2024/03/30 09:17:37;;;;;;;;;;;;;;;;;;5037822;28;19929;-73
2024/03/30 09:20:03;;;;;;;;;;;;;;;;;;5050695;28;19929;-72
2024/03/30 09:22:30;;;;;;;;;;;;;;;;;;5045288;28;19929;-72
2024/03/30 09:24:57;;;;;;;;;;;;;;;;;;5044283;28;19936;-72
2024/03/30 09:27:24;;;;;;;;;;;;;;;;;;5047526;28;19929;-72
2024/03/30 09:29:50;;;;;;;;;;;;;;;;;;5054554;28;20461;-72
2024/03/30 09:32:17;;;;;;;;;;;;;;;;;;5047075;28;20429;-73
2024/03/30 09:34:43;;;;;;;;;;;;;;;;;;5050347;28;20006;-73
2024/03/30 09:37:12;;;;;;;;;;;;;;;;;;5049420;28;19933;-74
2024/03/30 09:39:39;;;;;;;;;;;;;;;;;;5052686;28;19935;-74
2024/03/30 09:42:06;;;;;;;;;;;;;;;;;;5048221;28;19928;-76
2024/03/30 09:44:32;;;;;;;;;;;;;;;;;;5050412;28;19929;-76
2024/03/30 09:46:59;;;;;;;;;;;;;;;;;;5042295;28;19928;-75
2024/03/30 09:49:25;;;;;;;;;;;;;;;;;;5042160;28;19964;-75
2024/03/30 09:51:52;;;;;;;;;;;;;;;;;;5051224;28;19928;-75
2024/03/30 09:54:19;;;;;;;;;;;;;;;;;;5043847;28;20341;-74
2024/03/30 09:56:46;;;;;;;;;;;;;;;;;;5052561;28;19943;-74
2024/03/30 09:59:12;;;;;;;;;;;;;;;;;;5039756;28;19928;-74
2024/03/30 10:01:39;;;;;;;;;;;;;;;;;;5042500;28;19928;-75
2024/03/30 10:04:05;;;;;;;;;;;;;;;;;;5047121;28;20347;-74
2024/03/30 10:06:32;;;;;;;;;;;;;;;;;;5051205;28;19991;-74
2024/03/30 10:08:58;;;;;;;;;;;;;;;;;;5046220;28;19935;-76
2024/03/30 10:11:26;;;;;;;;;;;;;;;;;;5047975;28;20471;-75
2024/03/30 10:13:52;;;;;;;;;;;;;;;;;;5044282;28;19976;-75
2024/03/30 10:16:19;;;;;;;;;;;;;;;;;;5048534;28;19929;-74
2024/03/30 10:18:45;;;;;;;;;;;;;;;;;;5050645;28;19932;-74
2024/03/30 10:21:12;;;;;;;;;;;;;;;;;;5051980;28;19936;-75
2024/03/30 10:23:38;;;;;;;;;;;;;;;;;;5048087;28;19999;-76
2024/03/30 10:26:06;;;;;;;;;;;;;;;;;;5049394;28;19929;-74
2024/03/30 10:28:32;;;;;;;;;;;;;;;;;;5049659;28;19929;-76
2024/03/30 10:30:59;;;;;;;;;;;;;;;;;;5049768;28;19928;-75
2024/03/30 10:33:25;;;;;;;;;;;;;;;;;;5046718;28;19956;-74
2024/03/30 10:35:55;;;;;;;;;;;;;;;;;;5050287;28;19951;-75
2024/03/30 10:38:21;;;;;;;;;;;;;;;;;;5048768;28;19974;-74
2024/03/30 10:40:48;;;;;;;;;;;;;;;;;;5045674;28;19958;-75
2024/03/30 10:43:14;;;;;;;;;;;;;;;;;;5051508;28;20033;-74
2024/03/30 10:45:41;;;;;;;;;;;;;;;;;;5050023;28;20068;-74
2024/03/30 10:48:07;;;;;;;;;;;;;;;;;;5049496;28;19960;-73
2024/03/30 10:50:34;;;;;;;;;;;;;;;;;;5040506;28;19970;-72
2024/03/30 10:53:00;;;;;;;;;;;;;;;;;;5048096;28;19929;-72
2024/03/30 10:55:27;;;;;;;;;;;;;;;;;;5044439;28;19933;-72
2024/03/30 10:57:53;;;;;;;;;;;;;;;;;;5049069;28;19982;-73
2024/03/30 11:00:20;;;;;;;;;;;;;;;;;;5043464;28;19929;-73
2024/03/30 11:02:46;;;;;;;;;;;;;;;;;;5044419;28;20043;-73
2024/03/30 11:05:13;;;;;;;;;;;;;;;;;;5048581;28;20004;-74
2024/03/30 11:07:40;;;;;;;;;;;;;;;;;;5050775;28;20276;-74
2024/03/30 11:10:07;;;;;;;;;;;;;;;;;;5044941;28;20402;-74
2024/03/30 11:12:33;;;;;;;;;;;;;;;;;;5046809;28;19995;-74
2024/03/30 11:15:00;;;;;;;;;;;;;;;;;;5055561;28;20019;-74
2024/03/30 11:17:26;;;;;;;;;;;;;;;;;;5048963;28;19979;-73
2024/03/30 11:19:53;;;;;;;;;;;;;;;;;;5033772;28;19928;-74
2024/03/30 11:22:19;;;;;;;;;;;;;;;;;;5051965;28;19980;-74
2024/03/30 11:24:46;;;;;;;;;;;;;;;;;;5047051;28;19928;-73
2024/03/30 11:27:12;;;;;;;;;;;;;;;;;;5044807;28;20482;-73
2024/03/30 11:29:39;;;;;;;;;;;;;;;;;;5046978;28;19936;-74
2024/03/30 11:32:07;;;;;;;;;;;;;;;;;;5053662;28;20034;-74
2024/03/30 11:34:34;;;;;;;;;;;;;;;;;;5046337;28;19936;-74
2024/03/30 11:37:01;;;;;;;;;;;;;;;;;;5050902;28;20406;-74
2024/03/30 11:39:29;;;;;;;;;;;;;;;;;;5052036;28;19963;-73
2024/03/30 11:41:55;;;;;;;;;;;;;;;;;;5049356;28;19944;-74
2024/03/30 11:44:22;;;;;;;;;;;;;;;;;;5047500;28;19933;-74
2024/03/30 11:46:49;;;;;;;;;;;;;;;;;;5041791;28;20045;-73
2024/03/30 11:49:18;;;;;;;;;;;;;;;;;;5046848;28;19964;-74
2024/03/30 11:51:44;;;;;;;;;;;;;;;;;;5057071;28;19929;-74
2024/03/30 11:54:11;;;;;;;;;;;;;;;;;;5041848;28;19979;-74
2024/03/30 11:56:37;;;;;;;;;;;;;;;;;;5053807;28;20275;-73
2024/03/30 11:59:04;;;;;;;;;;;;;;;;;;5045660;28;20303;-73
2024/03/30 12:01:30;;;;;;;;;;;;;;;;;;5040002;28;19929;-73
2024/03/30 12:03:57;;;;;;;;;;;;;;;;;;5039921;28;19929;-73
2024/03/30 12:06:23;;;;;;;;;;;;;;;;;;5039448;28;20010;-74
2024/03/30 12:08:50;;;;;;;;;;;;;;;;;;5045540;28;19936;-74
2024/03/30 12:11:16;;;;;;;;;;;;;;;;;;5046100;28;19932;-73
2024/03/30 12:13:43;;;;;;;;;;;;;;;;;;5048123;28;19951;-73
2024/03/30 12:16:09;;;;;;;;;;;;;;;;;;5047742;28;19983;-75
2024/03/30 12:18:36;;;;;;;;;;;;;;;;;;5047926;28;19935;-73
2024/03/30 12:21:02;;;;;;;;;;;;;;;;;;5045116;28;20296;-73
2024/03/30 12:23:29;;;;;;;;;;;;;;;;;;5052342;28;20388;-73
2024/03/30 12:25:57;;;;;;;;;;;;;;;;;;5046588;28;19928;-73
2024/03/30 12:28:24;;;;;;;;;;;;;;;;;;5047290;28;19928;-74
2024/03/30 12:30:50;;;;;;;;;;;;;;;;;;5053124;28;20407;-73
2024/03/30 12:33:17;;;;;;;;;;;;;;;;;;5053765;28;19929;-74
2024/03/30 12:35:43;;;;;;;;;;;;;;;;;;5049738;28;20438;-74
2024/03/30 12:38:10;;;;;;;;;;;;;;;;;;5060181;28;20412;-74
2024/03/30 12:40:36;;;;;;;;;;;;;;;;;;5054296;28;20392;-74
2024/03/30 12:43:03;;;;;;;;;;;;;;;;;;5057761;28;19935;-74
2024/03/30 12:45:30;;;;;;;;;;;;;;;;;;5052982;28;19980;-74
2024/03/30 12:47:57;;;;;;;;;;;;;;;;;;5048525;28;19935;-74
2024/03/30 12:50:23;;;;;;;;;;;;;;;;;;5049904;28;19964;-74
2024/03/30 12:52:50;;;;;;;;;;;;;;;;;;5046708;28;20350;-74
2024/03/30 12:55:16;;;;;;;;;;;;;;;;;;5039839;28;19979;-74
2024/03/30 12:57:43;;;;;;;;;;;;;;;;;;5047150;28;19963;-74
2024/03/30 13:00:15;;;;;;;;;;;;;;;;;;5045482;28;19972;-74
2024/03/30 13:02:42;;;;;;;;;;;;;;;;;;5043351;28;19933;-74
2024/03/30 13:05:08;;;;;;;;;;;;;;;;;;5047159;28;20438;-74
2024/03/30 13:07:35;;;;;;;;;;;;;;;;;;5045392;28;19987;-74
2024/03/30 13:10:01;;;;;;;;;;;;;;;;;;5036587;28;20027;-74
2024/03/30 13:12:28;;;;;;;;;;;;;;;;;;5045645;28;20050;-74
2024/03/30 13:14:54;;;;;;;;;;;;;;;;;;5051005;28;19928;-73
2024/03/30 13:17:21;;;;;;;;;;;;;;;;;;5045926;28;19940;-72
2024/03/30 13:19:47;;;;;;;;;;;;;;;;;;5044258;28;20300;-72
2024/03/30 13:22:14;;;;;;;;;;;;;;;;;;5045372;28;20426;-73
2024/03/30 13:24:40;;;;;;;;;;;;;;;;;;5041645;28;19937;-73
2024/03/30 13:27:07;;;;;;;;;;;;;;;;;;5045453;28;19932;-74
2024/03/30 13:29:36;;;;;;;;;;;;;;;;;;5045943;28;19928;-73
2024/03/30 13:32:03;;;;;;;;;;;;;;;;;;5047059;28;19928;-73
2024/03/30 13:34:29;;;;;;;;;;;;;;;;;;5050059;28;20394;-72
2024/03/30 13:36:56;;;;;;;;;;;;;;;;;;5059251;28;20384;-74
2024/03/30 13:39:22;;;;;;;;;;;;;;;;;;5049960;28;19991;-72
2024/03/30 13:41:49;;;;;;;;;;;;;;;;;;5050327;28;20410;-73
2024/03/30 13:44:15;;;;;;;;;;;;;;;;;;5043370;28;19972;-73
2024/03/30 13:46:42;;;;;;;;;;;;;;;;;;5050202;28;19987;-73
2024/03/30 13:49:08;;;;;;;;;;;;;;;;;;5047896;28;19929;-73
2024/03/30 13:51:35;;;;;;;;;;;;;;;;;;5042366;28;19936;-72
2024/03/30 13:54:01;;;;;;;;;;;;;;;;;;5047797;28;19928;-73
2024/03/30 13:56:28;;;;;;;;;;;;;;;;;;5043542;28;20754;-73
2024/03/30 13:58:55;;;;;;;;;;;;;;;;;;5042466;28;20042;-73
2024/03/30 14:01:22;;;;;;;;;;;;;;;;;;5049604;28;20373;-73
2024/03/30 14:03:48;;;;;;;;;;;;;;;;;;5042726;28;19929;-73
2024/03/30 14:06:15;;;;;;;;;;;;;;;;;;5048425;28;20304;-73
2024/03/30 14:08:41;;;;;;;;;;;;;;;;;;5048510;28;19928;-73
2024/03/30 14:11:08;;;;;;;;;;;;;;;;;;5041069;28;20340;-74
2024/03/30 14:13:34;;;;;;;;;;;;;;;;;;5050026;28;19929;-74
2024/03/30 14:16:01;;;;;;;;;;;;;;;;;;5047412;28;19978;-74
2024/03/30 14:18:27;;;;;;;;;;;;;;;;;;5046160;28;19937;-73
2024/03/30 14:20:54;;;;;;;;;;;;;;;;;;5050909;28;19987;-73
2024/03/30 14:23:20;;;;;;;;;;;;;;;;;;5049611;28;19936;-74
2024/03/30 14:25:48;;;;;;;;;;;;;;;;;;5048778;28;20457;-74
2024/03/30 14:28:14;;;;;;;;;;;;;;;;;;5048321;28;19937;-74
2024/03/30 14:30:41;;;;;;;;;;;;;;;;;;5050583;28;19928;-73
2024/03/30 14:33:07;;;;;;;;;;;;;;;;;;5047990;28;19976;-73
2024/03/30 14:35:34;;;;;;;;;;;;;;;;;;5046098;28;20004;-73
2024/03/30 14:38:00;;;;;;;;;;;;;;;;;;5042384;28;19933;-72
2024/03/30 14:40:27;;;;;;;;;;;;;;;;;;5045325;28;19933;-73
2024/03/30 14:42:53;;;;;;;;;;;;;;;;;;5044554;28;19937;-73
2024/03/30 14:45:20;;;;;;;;;;;;;;;;;;5047872;28;19933;-74
2024/03/30 14:47:47;;;;;;;;;;;;;;;;;;5047160;28;19929;-73
2024/03/30 14:50:14;;;;;;;;;;;;;;;;;;5048785;28;19929;-74
2024/03/30 14:52:40;;;;;;;;;;;;;;;;;;5048842;28;19982;-73
2024/03/30 14:55:07;;;;;;;;;;;;;;;;;;5047732;28;19934;-75
2024/03/30 14:57:33;;;;;;;;;;;;;;;;;;5045869;28;19929;-73
2024/03/30 15:00:00;;;;;;;;;;;;;;;;;;5045553;28;19973;-74
2024/03/30 15:02:26;;;;;;;;;;;;;;;;;;5048193;28;19928;-74
2024/03/30 15:04:53;;;;;;;;;;;;;;;;;;5037996;28;20358;-74
2024/03/30 15:07:21;;;;;;;;;;;;;;;;;;5047040;28;20023;-74
2024/03/30 15:09:49;;;;;;;;;;;;;;;;;;5047894;28;19929;-72
2024/03/30 15:12:16;;;;;;;;;;;;;;;;;;5041025;28;19929;-73
2024/03/30 15:14:43;;;;;;;;;;;;;;;;;;5035421;28;19958;-72
2024/03/30 15:17:09;;;;;;;;;;;;;;;;;;5048649;28;19936;-73
2024/03/30 15:19:36;;;;;;;;;;;;;;;;;;5050473;28;19936;-72
2024/03/30 15:22:03;;;;;;;;;;;;;;;;;;5048886;28;19952;-72
2024/03/30 15:24:31;;;;;;;;;;;;;;;;;;5047627;28;19936;-73
2024/03/30 15:26:57;;;;;;;;;;;;;;;;;;5046716;28;19928;-72
2024/03/30 15:29:24;;;;;;;;;;;;;;;;;;5040653;28;20458;-73
2024/03/30 15:32:15;;;;;;;;;;;;;;;;;;5033094;28;20155;-74
2024/03/30 15:34:42;;;;;;;;;;;;;;;;;;5034020;28;19928;-74
2024/03/30 15:37:09;;;;;;;;;;;;;;;;;;5045928;28;19969;-74
2024/03/30 15:39:37;;;;;;;;;;;;;;;;;;5045666;28;20441;-73
2024/03/30 15:42:04;;;;;;;;;;;;;;;;;;5047930;28;19975;-74
2024/03/30 15:44:31;;;;;;;;;;;;;;;;;;5040046;28;19929;-74
2024/03/30 15:46:59;;;;;;;;;;;;;;;;;;5046988;28;19975;-74
2024/03/30 15:49:26;;;;;;;;;;;;;;;;;;5041598;28;20239;-73
2024/03/30 15:51:53;;;;;;;;;;;;;;;;;;5047892;28;19929;-74
2024/03/30 15:54:21;;;;;;;;;;;;;;;;;;5055231;28;19990;-77
2024/03/30 15:56:47;;;;;;;;;;;;;;;;;;5050293;28;19929;-75
2024/03/30 15:59:14;;;;;;;;;;;;;;;;;;5045016;28;20023;-76
2024/03/30 16:01:40;;;;;;;;;;;;;;;;;;5052931;28;19928;-79
2024/03/30 16:04:07;;;;;;;;;;;;;;;;;;5052400;28;19933;-75
2024/03/30 16:06:33;;;;;;;;;;;;;;;;;;5046671;28;20391;-76
2024/03/30 16:09:00;;;;;;;;;;;;;;;;;;5041945;28;20011;-77
2024/03/30 16:11:26;;;;;;;;;;;;;;;;;;5048185;28;20396;-75
2024/03/30 16:13:53;;;;;;;;;;;;;;;;;;5040644;28;20460;-76
2024/03/30 16:16:19;;;;;;;;;;;;;;;;;;5048650;28;19935;-76
2024/03/30 16:18:46;;;;;;;;;;;;;;;;;;5047293;28;20347;-76
2024/03/30 16:21:12;;;;;;;;;;;;;;;;;;5051052;28;19964;-76
2024/03/30 16:23:39;;;;;;;;;;;;;;;;;;5051385;28;19928;-77
2024/03/30 16:26:07;;;;;;;;;;;;;;;;;;5049001;28;19960;-77
2024/03/30 16:28:34;;;;;;;;;;;;;;;;;;5048980;28;20015;-76
2024/03/30 16:31:00;;;;;;;;;;;;;;;;;;5051766;28;20461;-76
2024/03/30 16:33:27;;;;;;;;;;;;;;;;;;5051035;28;19972;-76
2024/03/30 16:35:53;;;;;;;;;;;;;;;;;;5050921;28;20025;-76
2024/03/30 16:38:20;;;;;;;;;;;;;;;;;;5051109;28;19982;-76
2024/03/30 16:40:46;;;;;;;;;;;;;;;;;;5052232;28;19983;-76
2024/03/30 16:43:13;;;;;;;;;;;;;;;;;;5055641;28;19933;-76
2024/03/30 16:45:39;;;;;;;;;;;;;;;;;;5054123;28;19971;-78
2024/03/30 16:48:06;;;;;;;;;;;;;;;;;;5052480;28;19990;-76
2024/03/30 16:50:32;;;;;;;;;;;;;;;;;;5050212;28;20465;-77